sensor_id;sensor_type;location;lat;lon;timestamp;pressure;altitude;pressure_sealevel;temperature;humidity
20027;BME280;10174;42.688;23.344;2023-04-01T00:01:03;94452.38;;;10.50;66.49
20027;BME280;10174;42.688;23.344;2023-04-01T00:03:29;94333.59;;;9.76;65.84
20027;BME280;10174;42.688;23.344;2023-04-01T00:05:57;94371.75;;;9.97;65.58
20027;BME280;10174;42.688;23.344;2023-04-01T00:08:23;94460.75;;;10.44;66.32
20027;BME280;10174;42.688;23.344;2023-04-01T00:10:48;94422.25;;;10.24;66.23
20027;BME280;10174;42.688;23.344;2023-04-01T00:13:14;94454.41;;;10.34;66.53
20027;BME280;10174;42.688;23.344;2023-04-01T00:15:39;94350.59;;;9.61;66.36
20027;BME280;10174;42.688;23.344;2023-04-01T00:18:05;94449.75;;;10.11;66.28
20027;BME280;10174;42.688;23.344;2023-04-01T00:20:31;94453.63;;;9.94;67.53
20027;BME280;10174;42.688;23.344;2023-04-01T00:22:57;94426.81;;;9.55;68.41
20027;BME280;10174;42.688;23.344;2023-04-01T00:25:23;94409.41;;;9.47;68.85
20027;BME280;10174;42.688;23.344;2023-04-01T00:27:48;94455.53;;;9.89;68.55
20027;BME280;10174;42.688;23.344;2023-04-01T00:30:14;94433.78;;;9.90;67.52
20027;BME280;10174;42.688;23.344;2023-04-01T00:32:40;94432.69;;;9.96;66.99
20027;BME280;10174;42.688;23.344;2023-04-01T00:35:06;94421.72;;;9.93;68.19
20027;BME280;10174;42.688;23.344;2023-04-01T00:37:35;94442.50;;;10.11;67.70
20027;BME280;10174;42.688;23.344;2023-04-01T00:40:01;94441.97;;;10.09;67.67
20027;BME280;10174;42.688;23.344;2023-04-01T00:42:26;94441.66;;;10.16;68.08
20027;BME280;10174;42.688;23.344;2023-04-01T00:44:53;94426.34;;;10.16;68.15
20027;BME280;10174;42.688;23.344;2023-04-01T00:47:20;94314.81;;;9.41;70.59
20027;BME280;10174;42.688;23.344;2023-04-01T00:49:48;94429.59;;;10.13;69.60
20027;BME280;10174;42.688;23.344;2023-04-01T00:52:17;94392.22;;;9.88;71.46
20027;BME280;10174;42.688;23.344;2023-04-01T00:54:46;94418.91;;;10.08;71.20
20027;BME280;10174;42.688;23.344;2023-04-01T00:57:15;94385.06;;;9.78;70.72
20027;BME280;10174;42.688;23.344;2023-04-01T00:59:46;94409.78;;;10.09;69.87
20027;BME280;10174;42.688;23.344;2023-04-01T01:02:14;94395.88;;;10.02;70.15
20027;BME280;10174;42.688;23.344;2023-04-01T01:04:40;94397.94;;;10.10;70.95
20027;BME280;10174;42.688;23.344;2023-04-01T01:10:21;94390.31;;;9.93;71.42
20027;BME280;10174;42.688;23.344;2023-04-01T01:13:11;94387.19;;;9.81;72.21
20027;BME280;10174;42.688;23.344;2023-04-01T01:16:45;94376.25;;;9.72;72.71
20027;BME280;10174;42.688;23.344;2023-04-01T01:27:12;94373.63;;;9.67;74.18
20027;BME280;10174;42.688;23.344;2023-04-01T01:35:35;94357.03;;;9.65;74.50
20027;BME280;10174;42.688;23.344;2023-04-01T01:38:05;94286.81;;;9.23;73.26
20027;BME280;10174;42.688;23.344;2023-04-01T01:40:34;94354.84;;;9.67;72.95
20027;BME280;10174;42.688;23.344;2023-04-01T01:43:05;94257.69;;;9.12;71.80
20027;BME280;10174;42.688;23.344;2023-04-01T01:45:34;94339.03;;;9.66;72.41
20027;BME280;10174;42.688;23.344;2023-04-01T01:48:02;94341.94;;;9.69;72.20
20027;BME280;10174;42.688;23.344;2023-04-01T01:50:29;94235.22;;;9.07;71.27
20027;BME280;10174;42.688;23.344;2023-04-01T01:53:06;94349.91;;;9.79;72.31
20027;BME280;10174;42.688;23.344;2023-04-01T01:55:40;94347.78;;;9.76;72.45
20027;BME280;10174;42.688;23.344;2023-04-01T01:58:26;94336.50;;;9.79;71.42
20027;BME280;10174;42.688;23.344;2023-04-01T02:00:54;94334.94;;;9.73;72.45
20027;BME280;10174;42.688;23.344;2023-04-01T02:03:23;94347.88;;;9.66;73.61
20027;BME280;10174;42.688;23.344;2023-04-01T02:05:51;94341.06;;;9.44;74.97
20027;BME280;10174;42.688;23.344;2023-04-01T02:08:26;94335.03;;;9.29;73.69
20027;BME280;10174;42.688;23.344;2023-04-01T02:11:02;94202.06;;;8.59;72.96
20027;BME280;10174;42.688;23.344;2023-04-01T02:13:31;94324.88;;;9.60;71.83
20027;BME280;10174;42.688;23.344;2023-04-01T02:16:02;94319.41;;;9.70;71.87
20027;BME280;10174;42.688;23.344;2023-04-01T02:18:35;94319.84;;;9.83;72.14
20027;BME280;10174;42.688;23.344;2023-04-01T02:21:02;94309.69;;;9.79;72.07
20027;BME280;10174;42.688;23.344;2023-04-01T02:23:30;94284.06;;;9.92;71.04
20027;BME280;10174;42.688;23.344;2023-04-01T02:25:57;94210.41;;;9.26;71.83
20027;BME280;10174;42.688;23.344;2023-04-01T02:28:24;94305.09;;;9.80;71.57
20027;BME280;10174;42.688;23.344;2023-04-01T02:30:51;94314.41;;;9.93;71.99
20027;BME280;10174;42.688;23.344;2023-04-01T02:33:17;94263.03;;;9.75;70.41
20027;BME280;10174;42.688;23.344;2023-04-01T02:35:44;94326.72;;;10.23;71.08
20027;BME280;10174;42.688;23.344;2023-04-01T02:38:09;94325.50;;;10.10;71.26
20027;BME280;10174;42.688;23.344;2023-04-01T02:40:43;94292.25;;;9.82;71.50
20027;BME280;10174;42.688;23.344;2023-04-01T02:43:09;94289.88;;;9.75;71.94
20027;BME280;10174;42.688;23.344;2023-04-01T02:45:34;94331.06;;;9.90;71.79
20027;BME280;10174;42.688;23.344;2023-04-01T02:48:00;94340.41;;;9.92;71.25
20027;BME280;10174;42.688;23.344;2023-04-01T02:50:25;94334.03;;;9.88;71.54
20027;BME280;10174;42.688;23.344;2023-04-01T02:52:51;94325.44;;;9.86;71.62
20027;BME280;10174;42.688;23.344;2023-04-01T02:55:16;94291.09;;;9.59;69.84
20027;BME280;10174;42.688;23.344;2023-04-01T02:57:41;94324.72;;;9.75;69.21
20027;BME280;10174;42.688;23.344;2023-04-01T03:00:07;94344.31;;;9.76;69.39
20027;BME280;10174;42.688;23.344;2023-04-01T03:02:37;94361.25;;;9.71;69.50
20027;BME280;10174;42.688;23.344;2023-04-01T03:05:03;94344.69;;;9.64;69.35
20027;BME280;10174;42.688;23.344;2023-04-01T03:07:29;94349.00;;;9.60;70.13
20027;BME280;10174;42.688;23.344;2023-04-01T03:09:54;94341.69;;;9.31;70.56
20027;BME280;10174;42.688;23.344;2023-04-01T03:12:20;94361.47;;;9.40;70.05
20027;BME280;10174;42.688;23.344;2023-04-01T03:14:45;94338.81;;;9.22;70.67
20027;BME280;10174;42.688;23.344;2023-04-01T03:17:11;94339.09;;;9.16;70.64
20027;BME280;10174;42.688;23.344;2023-04-01T03:19:36;94361.53;;;9.30;70.29
20027;BME280;10174;42.688;23.344;2023-04-01T03:22:01;94363.72;;;9.23;70.86
20027;BME280;10174;42.688;23.344;2023-04-01T03:24:27;94340.78;;;9.06;71.21
20027;BME280;10174;42.688;23.344;2023-04-01T03:26:52;94348.16;;;9.25;70.83
20027;BME280;10174;42.688;23.344;2023-04-01T03:29:17;94259.25;;;8.73;70.50
20027;BME280;10174;42.688;23.344;2023-04-01T03:31:43;94320.41;;;9.11;70.93
20027;BME280;10174;42.688;23.344;2023-04-01T03:34:09;94354.03;;;9.32;71.21
20027;BME280;10174;42.688;23.344;2023-04-01T03:36:34;94364.91;;;9.46;71.47
20027;BME280;10174;42.688;23.344;2023-04-01T03:39:00;94352.50;;;9.60;70.50
20027;BME280;10174;42.688;23.344;2023-04-01T03:41:25;94355.06;;;9.71;71.86
20027;BME280;10174;42.688;23.344;2023-04-01T03:43:53;94345.25;;;9.90;70.42
20027;BME280;10174;42.688;23.344;2023-04-01T03:46:19;94265.50;;;9.42;71.35
20027;BME280;10174;42.688;23.344;2023-04-01T03:48:45;94290.16;;;9.74;71.56
20027;BME280;10174;42.688;23.344;2023-04-01T03:51:11;94317.09;;;9.88;71.90
20027;BME280;10174;42.688;23.344;2023-04-01T03:53:36;94299.88;;;9.94;70.72
20027;BME280;10174;42.688;23.344;2023-04-01T03:56:05;94300.94;;;9.98;71.99
20027;BME280;10174;42.688;23.344;2023-04-01T03:58:31;94267.19;;;9.92;72.54
20027;BME280;10174;42.688;23.344;2023-04-01T04:00:56;94159.44;;;9.31;70.18
20027;BME280;10174;42.688;23.344;2023-04-01T04:03:22;94253.09;;;10.05;71.45
20027;BME280;10174;42.688;23.344;2023-04-01T04:05:49;94175.53;;;9.60;70.83
20027;BME280;10174;42.688;23.344;2023-04-01T04:08:14;94247.09;;;10.13;69.93
20027;BME280;10174;42.688;23.344;2023-04-01T04:10:40;94116.13;;;9.24;71.26
20027;BME280;10174;42.688;23.344;2023-04-01T04:13:06;94241.41;;;9.96;69.77
20027;BME280;10174;42.688;23.344;2023-04-01T04:15:32;94229.53;;;10.02;70.69
20027;BME280;10174;42.688;23.344;2023-04-01T04:17:57;94210.84;;;9.92;69.43
20027;BME280;10174;42.688;23.344;2023-04-01T04:20:23;94219.41;;;9.94;69.15
20027;BME280;10174;42.688;23.344;2023-04-01T04:22:48;94238.03;;;10.09;69.64
20027;BME280;10174;42.688;23.344;2023-04-01T04:25:13;94208.81;;;10.08;68.37
20027;BME280;10174;42.688;23.344;2023-04-01T04:27:39;94217.00;;;10.16;69.06
20027;BME280;10174;42.688;23.344;2023-04-01T04:30:05;94199.44;;;10.05;69.33
20027;BME280;10174;42.688;23.344;2023-04-01T04:32:32;94194.06;;;10.05;66.70
20027;BME280;10174;42.688;23.344;2023-04-01T04:34:58;94202.03;;;10.10;66.87
20027;BME280;10174;42.688;23.344;2023-04-01T04:37:23;94184.94;;;10.06;66.90
20027;BME280;10174;42.688;23.344;2023-04-01T04:39:51;94187.66;;;10.01;66.72
20027;BME280;10174;42.688;23.344;2023-04-01T04:42:16;94187.50;;;9.92;67.24
20027;BME280;10174;42.688;23.344;2023-04-01T04:44:42;94205.09;;;10.04;67.64
20027;BME280;10174;42.688;23.344;2023-04-01T04:47:07;94175.00;;;9.83;67.67
20027;BME280;10174;42.688;23.344;2023-04-01T04:49:32;94197.94;;;9.94;67.64
20027;BME280;10174;42.688;23.344;2023-04-01T04:51:58;94188.91;;;9.85;67.94
20027;BME280;10174;42.688;23.344;2023-04-01T04:54:23;94180.66;;;9.81;67.81
20027;BME280;10174;42.688;23.344;2023-04-01T04:56:51;94165.06;;;9.83;67.97
20027;BME280;10174;42.688;23.344;2023-04-01T04:59:16;94175.97;;;9.92;67.59
20027;BME280;10174;42.688;23.344;2023-04-01T05:01:41;94182.41;;;9.91;67.70
20027;BME280;10174;42.688;23.344;2023-04-01T05:04:07;94132.78;;;9.69;67.48
20027;BME280;10174;42.688;23.344;2023-04-01T05:06:32;94062.75;;;9.27;66.25
20027;BME280;10174;42.688;23.344;2023-04-01T05:08:58;94159.47;;;9.79;67.65
20027;BME280;10174;42.688;23.344;2023-04-01T05:11:23;94147.69;;;9.80;69.74
20027;BME280;10174;42.688;23.344;2023-04-01T05:13:48;94141.47;;;9.61;68.37
20027;BME280;10174;42.688;23.344;2023-04-01T05:16:17;94159.13;;;9.86;68.24
20027;BME280;10174;42.688;23.344;2023-04-01T05:18:44;94145.44;;;9.88;67.62
20027;BME280;10174;42.688;23.344;2023-04-01T05:21:11;94160.94;;;9.91;69.87
20027;BME280;10174;42.688;23.344;2023-04-01T05:23:38;94143.78;;;9.92;69.66
20027;BME280;10174;42.688;23.344;2023-04-01T05:26:05;94121.03;;;9.65;70.08
20027;BME280;10174;42.688;23.344;2023-04-01T05:28:31;94131.53;;;9.61;70.46
20027;BME280;10174;42.688;23.344;2023-04-01T05:30:59;94138.59;;;9.76;69.47
20027;BME280;10174;42.688;23.344;2023-04-01T05:33:25;94134.94;;;9.91;68.09
20027;BME280;10174;42.688;23.344;2023-04-01T05:35:50;94103.84;;;9.66;69.39
20027;BME280;10174;42.688;23.344;2023-04-01T05:38:16;94121.44;;;9.77;69.03
20027;BME280;10174;42.688;23.344;2023-04-01T05:40:41;94142.31;;;9.80;68.62
20027;BME280;10174;42.688;23.344;2023-04-01T05:43:06;94147.13;;;10.03;69.26
20027;BME280;10174;42.688;23.344;2023-04-01T05:45:32;94155.25;;;9.97;68.55
20027;BME280;10174;42.688;23.344;2023-04-01T05:47:58;94130.38;;;9.92;68.61
20027;BME280;10174;42.688;23.344;2023-04-01T05:50:24;94130.59;;;9.95;67.46
20027;BME280;10174;42.688;23.344;2023-04-01T05:52:50;94117.53;;;9.89;67.43
20027;BME280;10174;42.688;23.344;2023-04-01T05:55:15;94139.69;;;10.19;66.51
20027;BME280;10174;42.688;23.344;2023-04-01T05:57:41;94136.25;;;10.37;65.59
20027;BME280;10174;42.688;23.344;2023-04-01T06:00:06;94084.63;;;10.21;65.68
20027;BME280;10174;42.688;23.344;2023-04-01T06:02:32;94130.53;;;10.63;64.95
20027;BME280;10174;42.688;23.344;2023-04-01T06:05:14;94112.13;;;10.70;62.66
20027;BME280;10174;42.688;23.344;2023-04-01T06:07:40;94122.81;;;11.08;63.13
20027;BME280;10174;42.688;23.344;2023-04-01T06:10:18;94066.38;;;11.08;60.72
20027;BME280;10174;42.688;23.344;2023-04-01T06:13:04;94121.91;;;12.15;57.93
20027;BME280;10174;42.688;23.344;2023-04-01T06:15:39;94118.44;;;12.51;55.29
20027;BME280;10174;42.688;23.344;2023-04-01T06:18:28;94125.34;;;12.80;54.98
20027;BME280;10174;42.688;23.344;2023-04-01T06:29:36;94129.47;;;13.54;53.05
20027;BME280;10174;42.688;23.344;2023-04-01T06:37:41;94114.31;;;13.76;52.53
20027;BME280;10174;42.688;23.344;2023-04-01T06:54:36;94085.22;;;12.78;56.37
20027;BME280;10174;42.688;23.344;2023-04-01T06:57:30;94074.59;;;13.05;56.14
20027;BME280;10174;42.688;23.344;2023-04-01T07:00:00;94053.47;;;13.29;55.55
20027;BME280;10174;42.688;23.344;2023-04-01T07:02:36;94072.81;;;13.31;55.03
20027;BME280;10174;42.688;23.344;2023-04-01T07:05:04;94015.06;;;12.92;55.88
20027;BME280;10174;42.688;23.344;2023-04-01T07:07:35;94078.38;;;13.26;55.98
20027;BME280;10174;42.688;23.344;2023-04-01T07:10:16;94075.44;;;13.14;56.27
20027;BME280;10174;42.688;23.344;2023-04-01T07:12:49;94035.41;;;12.98;56.56
20027;BME280;10174;42.688;23.344;2023-04-01T07:15:32;94028.72;;;12.96;56.60
20027;BME280;10174;42.688;23.344;2023-04-01T07:18:03;94026.22;;;12.99;56.55
20027;BME280;10174;42.688;23.344;2023-04-01T07:20:35;94033.00;;;13.28;56.54
20027;BME280;10174;42.688;23.344;2023-04-01T07:23:04;94049.09;;;13.33;57.29
20027;BME280;10174;42.688;23.344;2023-04-01T07:25:35;94071.34;;;13.48;57.29
20027;BME280;10174;42.688;23.344;2023-04-01T07:28:13;94015.72;;;13.29;56.93
20027;BME280;10174;42.688;23.344;2023-04-01T07:39:49;94062.53;;;13.65;58.08
20027;BME280;10174;42.688;23.344;2023-04-01T07:45:23;94054.63;;;13.77;56.89
20027;BME280;10174;42.688;23.344;2023-04-01T07:50:37;94049.13;;;14.00;56.50
20027;BME280;10174;42.688;23.344;2023-04-01T07:53:23;94041.34;;;13.98;56.54
20027;BME280;10174;42.688;23.344;2023-04-01T07:56:17;94036.91;;;14.02;55.81
20027;BME280;10174;42.688;23.344;2023-04-01T08:17:02;94018.97;;;14.76;52.33
20027;BME280;10174;42.688;23.344;2023-04-01T08:22:35;94011.03;;;14.71;52.45
20027;BME280;10174;42.688;23.344;2023-04-01T08:25:05;93912.81;;;14.50;51.58
20027;BME280;10174;42.688;23.344;2023-04-01T08:27:45;93944.88;;;14.77;51.71
20027;BME280;10174;42.688;23.344;2023-04-01T08:30:18;93996.97;;;15.04;51.89
20027;BME280;10174;42.688;23.344;2023-04-01T08:32:53;93916.63;;;14.66;52.02
20027;BME280;10174;42.688;23.344;2023-04-01T08:35:31;93976.25;;;15.08;51.81
20027;BME280;10174;42.688;23.344;2023-04-01T08:38:01;93971.72;;;15.30;51.67
20027;BME280;10174;42.688;23.344;2023-04-01T08:46:49;93934.38;;;15.83;49.78
20027;BME280;10174;42.688;23.344;2023-04-01T08:52:05;93925.34;;;17.13;47.40
20027;BME280;10174;42.688;23.344;2023-04-01T09:05:30;93900.28;;;19.22;38.50
20027;BME280;10174;42.688;23.344;2023-04-01T09:08:15;93865.59;;;18.43;39.33
20027;BME280;10174;42.688;23.344;2023-04-01T09:10:59;93938.84;;;18.24;39.61
20027;BME280;10174;42.688;23.344;2023-04-01T09:13:36;93886.66;;;17.53;40.46
20027;BME280;10174;42.688;23.344;2023-04-01T09:16:49;93943.72;;;18.18;41.07
20027;BME280;10174;42.688;23.344;2023-04-01T09:22:27;93933.34;;;18.36;39.97
20027;BME280;10174;42.688;23.344;2023-04-01T09:37:40;93906.84;;;18.05;39.81
20027;BME280;10174;42.688;23.344;2023-04-01T09:39:38;93901.72;;;18.15;39.20
20027;BME280;10174;42.688;23.344;2023-04-01T10:02:14;93844.22;;;18.42;39.61
20027;BME280;10174;42.688;23.344;2023-04-01T10:06:00;93844.63;;;18.00;40.91
20027;BME280;10174;42.688;23.344;2023-04-01T10:22:16;93761.13;;;17.84;41.20
20027;BME280;10174;42.688;23.344;2023-04-01T10:25:10;93731.09;;;17.36;42.53
20027;BME280;10174;42.688;23.344;2023-04-01T10:28:07;93827.50;;;18.27;41.49
20027;BME280;10174;42.688;23.344;2023-04-01T10:33:31;93822.00;;;17.42;42.37
20027;BME280;10174;42.688;23.344;2023-04-01T10:39:00;93825.94;;;17.45;42.82
20027;BME280;10174;42.688;23.344;2023-04-01T11:23:21;93774.72;;;16.90;46.10
20027;BME280;10174;42.688;23.344;2023-04-01T11:28:54;93795.25;;;16.91;46.05
20027;BME280;10174;42.688;23.344;2023-04-01T11:32:31;93827.13;;;16.95;44.75
20027;BME280;10174;42.688;23.344;2023-04-01T11:34:36;93826.84;;;16.63;41.97
20027;BME280;10174;42.688;23.344;2023-04-01T11:43:11;93771.56;;;14.40;53.71
20027;BME280;10174;42.688;23.344;2023-04-01T11:45:53;93926.50;;;15.01;56.83
20027;BME280;10174;42.688;23.344;2023-04-01T11:51:40;93996.56;;;13.97;63.10
20027;BME280;10174;42.688;23.344;2023-04-01T11:57:51;94047.19;;;11.70;79.95
20027;BME280;10174;42.688;23.344;2023-04-01T12:14:19;94034.97;;;10.76;89.41
20027;BME280;10174;42.688;23.344;2023-04-01T12:19:51;93934.34;;;10.40;90.63
20027;BME280;10174;42.688;23.344;2023-04-01T12:22:41;94035.03;;;11.45;90.68
20027;BME280;10174;42.688;23.344;2023-04-01T12:28:06;94036.56;;;12.16;86.57
20027;BME280;10174;42.688;23.344;2023-04-01T12:36:56;94038.00;;;11.85;84.48
20027;BME280;10174;42.688;23.344;2023-04-01T13:01:52;94013.34;;;11.28;87.45
20027;BME280;10174;42.688;23.344;2023-04-01T13:25:39;93953.53;;;12.09;85.94
20027;BME280;10174;42.688;23.344;2023-04-01T13:28:14;93951.81;;;12.13;84.64
20027;BME280;10174;42.688;23.344;2023-04-01T13:33:45;93925.56;;;12.73;81.26
20027;BME280;10174;42.688;23.344;2023-04-01T13:36:24;93912.06;;;13.04;81.46
20027;BME280;10174;42.688;23.344;2023-04-01T13:41:37;93733.81;;;11.90;77.78
20027;BME280;10174;42.688;23.344;2023-04-01T13:44:28;93883.91;;;12.79;78.87
20027;BME280;10174;42.688;23.344;2023-04-01T13:57:51;93892.59;;;13.16;77.94
20027;BME280;10174;42.688;23.344;2023-04-01T14:03:20;93902.13;;;13.13;76.55
20027;BME280;10174;42.688;23.344;2023-04-01T14:06:13;93868.63;;;13.06;76.43
20027;BME280;10174;42.688;23.344;2023-04-01T14:27:34;93837.72;;;13.29;71.79
20027;BME280;10174;42.688;23.344;2023-04-01T14:30:14;93836.94;;;13.29;71.86
20027;BME280;10174;42.688;23.344;2023-04-01T14:49:28;93825.41;;;14.46;69.83
20027;BME280;10174;42.688;23.344;2023-04-01T14:52:04;93669.56;;;13.60;69.53
20027;BME280;10174;42.688;23.344;2023-04-01T14:54:35;93801.19;;;14.58;69.09
20027;BME280;10174;42.688;23.344;2023-04-01T14:57:13;93792.16;;;14.63;68.10
20027;BME280;10174;42.688;23.344;2023-04-01T15:00:31;93844.38;;;15.14;66.42
20027;BME280;10174;42.688;23.344;2023-04-01T15:02:57;93776.13;;;14.49;66.21
20027;BME280;10174;42.688;23.344;2023-04-01T15:08:13;93851.00;;;14.95;65.39
20027;BME280;10174;42.688;23.344;2023-04-01T15:10:56;93855.13;;;14.93;65.05
20027;BME280;10174;42.688;23.344;2023-04-01T15:24:21;93852.16;;;14.21;68.64
20027;BME280;10174;42.688;23.344;2023-04-01T15:40:57;93724.59;;;12.72;70.70
20027;BME280;10174;42.688;23.344;2023-04-01T15:43:45;93860.81;;;13.53;68.83
20027;BME280;10174;42.688;23.344;2023-04-01T15:49:11;93861.81;;;13.17;68.85
20027;BME280;10174;42.688;23.344;2023-04-01T15:54:32;94086.03;;;11.78;71.03
20027;BME280;10174;42.688;23.344;2023-04-01T15:57:08;93962.06;;;10.16;73.46
20027;BME280;10174;42.688;23.344;2023-04-01T16:00:40;94104.97;;;10.46;74.82
20027;BME280;10174;42.688;23.344;2023-04-01T16:11:27;94074.72;;;8.42;90.86
20027;BME280;10174;42.688;23.344;2023-04-01T16:22:30;94127.63;;;8.11;95.88
20027;BME280;10174;42.688;23.344;2023-04-01T16:30:48;94004.06;;;7.14;94.36
20027;BME280;10174;42.688;23.344;2023-04-01T16:33:47;94124.44;;;8.09;94.35
20027;BME280;10174;42.688;23.344;2023-04-01T16:36:50;94144.78;;;8.05;94.62
20027;BME280;10174;42.688;23.344;2023-04-01T16:39:42;94130.44;;;7.85;94.51
20027;BME280;10174;42.688;23.344;2023-04-01T16:47:40;94161.34;;;8.12;91.95
20027;BME280;10174;42.688;23.344;2023-04-01T16:53:21;94133.63;;;7.87;90.75
20027;BME280;10174;42.688;23.344;2023-04-01T16:55:51;94170.97;;;8.08;92.12
20027;BME280;10174;42.688;23.344;2023-04-01T16:58:37;94156.03;;;8.01;90.13
20027;BME280;10174;42.688;23.344;2023-04-01T17:01:13;94038.22;;;7.22;88.10
20027;BME280;10174;42.688;23.344;2023-04-01T17:03:45;94154.97;;;8.02;89.15
20027;BME280;10174;42.688;23.344;2023-04-01T17:06:19;94167.22;;;8.09;88.52
20027;BME280;10174;42.688;23.344;2023-04-01T17:11:42;94174.97;;;8.15;85.29
20027;BME280;10174;42.688;23.344;2023-04-01T17:19:48;94202.75;;;8.25;84.44
20027;BME280;10174;42.688;23.344;2023-04-01T17:25:25;94162.56;;;7.75;85.46
20027;BME280;10174;42.688;23.344;2023-04-01T17:28:16;94202.56;;;8.06;85.11
20027;BME280;10174;42.688;23.344;2023-04-01T17:33:51;94195.63;;;7.99;85.93
20027;BME280;10174;42.688;23.344;2023-04-01T17:36:37;94181.53;;;7.83;85.42
20027;BME280;10174;42.688;23.344;2023-04-01T17:52:34;94231.44;;;8.09;84.52
20027;BME280;10174;42.688;23.344;2023-04-01T17:58:19;94251.84;;;7.84;85.24
20027;BME280;10174;42.688;23.344;2023-04-01T18:01:01;94256.88;;;7.91;85.18
20027;BME280;10174;42.688;23.344;2023-04-01T18:12:17;94255.63;;;7.57;83.54
20027;BME280;10174;42.688;23.344;2023-04-01T18:17:24;94283.16;;;7.73;83.20
20027;BME280;10174;42.688;23.344;2023-04-01T18:22:44;94235.88;;;7.43;82.49
20027;BME280;10174;42.688;23.344;2023-04-01T18:27:45;94159.53;;;6.90;82.99
20027;BME280;10174;42.688;23.344;2023-04-01T18:30:20;94274.31;;;7.67;83.99
20027;BME280;10174;42.688;23.344;2023-04-01T18:33:16;94275.41;;;7.66;83.32
20027;BME280;10174;42.688;23.344;2023-04-01T18:35:54;94287.69;;;7.73;83.25
20027;BME280;10174;42.688;23.344;2023-04-01T18:38:35;94288.78;;;7.66;83.64
20027;BME280;10174;42.688;23.344;2023-04-01T18:43:43;94240.69;;;7.36;84.18
20027;BME280;10174;42.688;23.344;2023-04-01T18:49:27;94259.38;;;7.46;84.83
20027;BME280;10174;42.688;23.344;2023-04-01T18:57:55;94297.81;;;7.86;83.48
20027;BME280;10174;42.688;23.344;2023-04-01T19:00:36;94306.63;;;8.02;82.37
20027;BME280;10174;42.688;23.344;2023-04-01T19:03:15;94272.16;;;7.80;80.92
20027;BME280;10174;42.688;23.344;2023-04-01T19:05:46;94277.75;;;7.89;80.39
20027;BME280;10174;42.688;23.344;2023-04-01T19:08:25;94225.69;;;7.65;80.58
20027;BME280;10174;42.688;23.344;2023-04-01T19:11:18;94311.38;;;8.20;79.49
20027;BME280;10174;42.688;23.344;2023-04-01T19:21:56;94316.19;;;8.34;77.94
20027;BME280;10174;42.688;23.344;2023-04-01T19:27:27;94290.81;;;8.06;78.04
20027;BME280;10174;42.688;23.344;2023-04-01T19:35:52;94336.25;;;8.21;76.90
20027;BME280;10174;42.688;23.344;2023-04-01T19:38:30;94300.50;;;7.91;76.22
20027;BME280;10174;42.688;23.344;2023-04-01T19:41:27;94330.44;;;8.03;76.89
20027;BME280;10174;42.688;23.344;2023-04-01T19:46:37;94360.91;;;8.23;76.71
20027;BME280;10174;42.688;23.344;2023-04-01T19:52:00;94293.00;;;7.83;75.51
20027;BME280;10174;42.688;23.344;2023-04-01T19:54:47;94358.22;;;8.08;75.34
20027;BME280;10174;42.688;23.344;2023-04-01T20:00:18;94341.41;;;8.02;75.27
20027;BME280;10174;42.688;23.344;2023-04-01T20:14:26;94362.25;;;8.00;76.00
20027;BME280;10174;42.688;23.344;2023-04-01T20:25:22;94361.97;;;8.22;74.85
20027;BME280;10174;42.688;23.344;2023-04-01T20:28:04;94373.72;;;8.31;74.93
20027;BME280;10174;42.688;23.344;2023-04-01T20:38:51;94363.31;;;8.14;72.29
20027;BME280;10174;42.688;23.344;2023-04-01T20:41:30;94344.84;;;8.08;70.63
20027;BME280;10174;42.688;23.344;2023-04-01T20:44:13;94358.78;;;8.10;70.68
20027;BME280;10174;42.688;23.344;2023-04-01T20:46:48;94384.69;;;8.25;70.20
20027;BME280;10174;42.688;23.344;2023-04-01T20:49:32;94388.19;;;8.20;70.65
20027;BME280;10174;42.688;23.344;2023-04-01T20:52:32;94382.84;;;8.20;69.93
20027;BME280;10174;42.688;23.344;2023-04-01T21:00:29;94356.09;;;7.99;69.96
20027;BME280;10174;42.688;23.344;2023-04-01T21:03:28;94385.25;;;8.22;69.73
20027;BME280;10174;42.688;23.344;2023-04-01T21:12:05;94356.66;;;7.86;70.70
20027;BME280;10174;42.688;23.344;2023-04-01T21:17:45;94403.16;;;8.26;69.15
20027;BME280;10174;42.688;23.344;2023-04-01T21:26:09;94415.41;;;8.43;69.01
20027;BME280;10174;42.688;23.344;2023-04-01T21:29:05;94414.91;;;8.51;68.96
20027;BME280;10174;42.688;23.344;2023-04-01T21:50:39;94413.28;;;8.39;68.48
20027;BME280;10174;42.688;23.344;2023-04-01T22:09:46;94409.84;;;8.34;68.37
20027;BME280;10174;42.688;23.344;2023-04-01T22:12:50;94397.81;;;8.26;69.08
20027;BME280;10174;42.688;23.344;2023-04-01T22:24:06;94375.88;;;7.98;70.27
20027;BME280;10174;42.688;23.344;2023-04-01T22:26:54;94330.47;;;7.62;70.57
20027;BME280;10174;42.688;23.344;2023-04-01T22:32:12;94287.19;;;7.35;70.53
20027;BME280;10174;42.688;23.344;2023-04-01T22:42:48;94403.72;;;7.92;68.49
20027;BME280;10174;42.688;23.344;2023-04-01T22:50:22;94390.38;;;7.82;67.72
20027;BME280;10174;42.688;23.344;2023-04-01T22:52:56;94386.09;;;7.76;68.51
20027;BME280;10174;42.688;23.344;2023-04-01T22:55:29;94395.69;;;7.72;68.83
20027;BME280;10174;42.688;23.344;2023-04-01T22:58:05;94373.50;;;7.56;68.88
20027;BME280;10174;42.688;23.344;2023-04-01T23:00:50;94429.38;;;7.83;69.53
20027;BME280;10174;42.688;23.344;2023-04-01T23:03:33;94417.91;;;7.82;68.41
20027;BME280;10174;42.688;23.344;2023-04-01T23:06:04;94430.19;;;7.89;67.84
20027;BME280;10174;42.688;23.344;2023-04-01T23:11:50;94420.81;;;7.86;67.99
20027;BME280;10174;42.688;23.344;2023-04-01T23:15:10;94418.69;;;7.83;67.95
20027;BME280;10174;42.688;23.344;2023-04-01T23:30:48;94437.16;;;8.15;65.93
20027;BME280;10174;42.688;23.344;2023-04-01T23:33:29;94417.09;;;7.97;66.53
20027;BME280;10174;42.688;23.344;2023-04-01T23:35:58;94441.69;;;8.10;66.59
20027;BME280;10174;42.688;23.344;2023-04-01T23:38:38;94314.44;;;7.31;66.20
20027;BME280;10174;42.688;23.344;2023-04-01T23:41:18;94443.56;;;7.99;67.19